createdAt,value
2022-12-08T00:02:18.826Z,100.00
2022-12-08T00:05:04.479Z,100.00
2022-12-08T00:07:49.591Z,100.00
2022-12-08T00:10:47.161Z,100.00
2022-12-08T00:13:02.828Z,100.00
2022-12-08T00:15:29.521Z,100.00
2022-12-08T00:17:56.149Z,100.00
2022-12-08T00:20:22.801Z,100.00
2022-12-08T00:22:49.407Z,100.00
2022-12-08T00:25:16.276Z,100.00
2022-12-08T00:27:42.905Z,100.00
2022-12-08T00:30:09.932Z,100.00
2022-12-08T00:32:37.989Z,100.00
2022-12-08T00:35:05.137Z,100.00
2022-12-08T00:37:31.950Z,100.00
2022-12-08T00:39:58.552Z,100.00
2022-12-08T00:42:25.106Z,100.00
2022-12-08T00:44:51.692Z,100.00
2022-12-08T00:47:23.448Z,100.00
2022-12-08T00:49:52.162Z,100.00
2022-12-08T00:52:18.905Z,100.00
2022-12-08T00:54:45.627Z,100.00
2022-12-08T00:57:12.239Z,100.00
2022-12-08T00:59:39.631Z,100.00
2022-12-08T01:02:06.275Z,100.00
2022-12-08T01:04:32.924Z,100.00
2022-12-08T01:06:59.561Z,100.00
2022-12-08T01:09:26.155Z,100.00
2022-12-08T01:11:52.799Z,100.00
2022-12-08T01:14:19.381Z,100.00
2022-12-08T01:16:46.106Z,100.00
2022-12-08T01:19:15.585Z,100.00
2022-12-08T01:21:43.138Z,100.00
2022-12-08T01:24:15.309Z,100.00
2022-12-08T01:26:41.955Z,100.00
2022-12-08T01:29:09.100Z,100.00
2022-12-08T01:31:36.010Z,100.00
2022-12-08T01:34:02.595Z,100.00
2022-12-08T01:36:31.367Z,100.00
2022-12-08T01:39:00.181Z,100.00
2022-12-08T01:41:30.703Z,100.00
2022-12-08T01:44:01.645Z,100.00
2022-12-08T01:46:30.546Z,100.00
2022-12-08T01:49:03.682Z,100.00
2022-12-08T01:51:35.525Z,100.00
2022-12-08T01:54:05.258Z,100.00
2022-12-08T01:56:41.689Z,100.00
2022-12-08T01:59:09.301Z,100.00
2022-12-08T02:01:35.982Z,100.00
2022-12-08T02:04:04.693Z,100.00
2022-12-08T02:06:37.038Z,100.00
2022-12-08T02:09:03.869Z,100.00
2022-12-08T02:11:30.500Z,100.00
2022-12-08T02:13:58.967Z,100.00
2022-12-08T02:17:01.825Z,100.00
2022-12-08T02:20:01.704Z,100.00
2022-12-08T02:22:44.536Z,100.00
2022-12-08T02:25:15.309Z,100.00
2022-12-08T02:28:52.964Z,100.00
2022-12-08T02:31:22.193Z,100.00
2022-12-08T02:34:10.417Z,100.00
2022-12-08T02:36:55.891Z,100.00
2022-12-08T02:39:35.101Z,100.00
2022-12-08T02:42:43.718Z,100.00
2022-12-08T02:45:17.416Z,100.00
2022-12-08T02:47:44.991Z,100.00
2022-12-08T02:50:12.627Z,100.00
2022-12-08T02:52:45.016Z,100.00
2022-12-08T02:55:20.591Z,100.00
2022-12-08T02:58:24.272Z,100.00
2022-12-08T03:01:11.122Z,100.00
2022-12-08T03:03:46.945Z,100.00
2022-12-08T03:06:28.722Z,100.00
2022-12-08T03:08:57.900Z,100.00
2022-12-08T03:11:38.315Z,100.00
2022-12-08T03:14:07.866Z,100.00
2022-12-08T03:16:38.362Z,100.00
2022-12-08T03:19:18.645Z,100.00
2022-12-08T03:21:49.320Z,100.00
2022-12-08T03:24:17.522Z,100.00
2022-12-08T03:26:52.106Z,100.00
2022-12-08T03:29:19.061Z,100.00
2022-12-08T03:31:53.404Z,100.00
2022-12-08T03:34:21.373Z,100.00
2022-12-08T03:36:48.006Z,100.00
2022-12-08T03:39:15.050Z,100.00
2022-12-08T03:41:41.680Z,100.00
2022-12-08T03:44:08.246Z,100.00
2022-12-08T03:46:34.951Z,100.00
2022-12-08T03:49:01.503Z,100.00
2022-12-08T03:51:28.096Z,100.00
2022-12-08T03:53:54.744Z,100.00
2022-12-08T03:56:34.425Z,100.00
2022-12-08T03:59:01.160Z,100.00
2022-12-08T04:01:27.945Z,100.00
2022-12-08T04:03:54.888Z,100.00
2022-12-08T04:06:22.626Z,100.00
2022-12-08T04:08:50.504Z,100.00
2022-12-08T04:11:18.121Z,100.00
2022-12-08T04:13:45.164Z,100.00
2022-12-08T04:16:21.987Z,100.00
2022-12-08T04:18:48.962Z,100.00
2022-12-08T04:21:15.877Z,100.00
2022-12-08T04:23:42.982Z,100.00
2022-12-08T04:26:10.052Z,100.00
2022-12-08T04:28:37.147Z,100.00
2022-12-08T04:31:04.383Z,100.00
2022-12-08T04:33:31.199Z,100.00
2022-12-08T04:35:57.831Z,100.00
2022-12-08T04:38:24.883Z,100.00
2022-12-08T04:40:51.486Z,100.00
2022-12-08T04:43:18.066Z,100.00
2022-12-08T04:45:44.753Z,100.00
2022-12-08T04:48:13.379Z,100.00
2022-12-08T04:50:41.948Z,100.00
2022-12-08T04:53:09.711Z,100.00
2022-12-08T04:55:45.463Z,100.00
2022-12-08T04:58:16.881Z,100.00
2022-12-08T05:00:44.200Z,100.00
2022-12-08T05:03:11.013Z,100.00
2022-12-08T05:05:37.737Z,100.00
2022-12-08T05:08:05.010Z,100.00
2022-12-08T05:10:32.905Z,100.00
2022-12-08T05:13:00.157Z,100.00
2022-12-08T05:15:26.950Z,100.00
2022-12-08T05:17:53.675Z,100.00
2022-12-08T05:20:20.427Z,100.00
2022-12-08T05:22:47.232Z,100.00
2022-12-08T05:25:15.161Z,100.00
2022-12-08T05:27:43.148Z,100.00
2022-12-08T05:30:09.890Z,100.00
2022-12-08T05:32:36.510Z,100.00
2022-12-08T05:35:03.154Z,100.00
2022-12-08T05:37:29.786Z,100.00
2022-12-08T05:39:56.369Z,100.00
2022-12-08T05:42:25.023Z,100.00
2022-12-08T05:44:51.984Z,100.00
2022-12-08T05:47:18.571Z,100.00
2022-12-08T05:49:45.256Z,100.00
2022-12-08T05:52:11.922Z,100.00
2022-12-08T05:54:38.805Z,100.00
2022-12-08T05:57:05.447Z,100.00
2022-12-08T05:59:32.063Z,100.00
2022-12-08T06:01:58.820Z,100.00
2022-12-08T06:04:25.464Z,100.00
2022-12-08T06:06:52.474Z,100.00
2022-12-08T06:09:19.156Z,100.00
2022-12-08T06:11:47.279Z,100.00
2022-12-08T06:14:14.300Z,100.00
2022-12-08T06:16:40.995Z,100.00
2022-12-08T06:19:07.837Z,100.00
2022-12-08T06:21:34.499Z,100.00
2022-12-08T06:24:01.187Z,100.00
2022-12-08T06:26:27.808Z,100.00
2022-12-08T06:28:54.599Z,100.00
2022-12-08T06:31:24.344Z,100.00
2022-12-08T06:33:51.376Z,100.00
2022-12-08T06:36:20.028Z,100.00
2022-12-08T06:38:47.114Z,100.00
2022-12-08T06:41:13.859Z,100.00
2022-12-08T06:43:41.368Z,100.00
2022-12-08T06:46:11.492Z,100.00
2022-12-08T06:48:38.178Z,100.00
2022-12-08T06:51:17.208Z,100.00
2022-12-08T06:53:44.292Z,100.00
2022-12-08T06:56:12.157Z,100.00
2022-12-08T06:58:39.285Z,100.00
2022-12-08T07:01:08.550Z,100.00
2022-12-08T07:03:36.344Z,100.00
2022-12-08T07:06:04.284Z,100.00
2022-12-08T07:08:32.233Z,100.00
2022-12-08T07:10:59.020Z,100.00
2022-12-08T07:13:25.901Z,100.00
2022-12-08T07:15:52.621Z,100.00
2022-12-08T07:18:19.163Z,100.00
2022-12-08T07:20:46.053Z,100.00
2022-12-08T07:23:12.714Z,100.00
2022-12-08T07:25:39.398Z,100.00
2022-12-08T07:28:12.307Z,100.00
2022-12-08T07:30:39.858Z,100.00
2022-12-08T07:33:06.790Z,100.00
2022-12-08T07:35:35.192Z,100.00
2022-12-08T07:38:03.444Z,100.00
2022-12-08T07:40:30.146Z,100.00
2022-12-08T07:42:56.868Z,100.00
2022-12-08T07:45:29.774Z,100.00
2022-12-08T07:47:58.130Z,100.00
2022-12-08T07:50:24.947Z,100.00
2022-12-08T07:52:51.897Z,100.00
2022-12-08T07:55:18.660Z,100.00
2022-12-08T07:57:45.430Z,100.00
2022-12-08T08:00:12.749Z,100.00
2022-12-08T08:02:40.022Z,100.00
2022-12-08T08:05:07.532Z,100.00
2022-12-08T08:07:34.528Z,100.00
2022-12-08T08:10:01.715Z,100.00
2022-12-08T08:12:32.575Z,100.00
2022-12-08T08:15:01.764Z,100.00
2022-12-08T08:17:30.024Z,100.00
2022-12-08T08:19:57.306Z,100.00
2022-12-08T08:22:26.143Z,100.00
2022-12-08T08:24:53.412Z,100.00
2022-12-08T08:27:21.205Z,100.00
2022-12-08T08:29:48.062Z,100.00
2022-12-08T08:32:17.694Z,100.00
2022-12-08T08:35:33.453Z,100.00
2022-12-08T08:38:04.535Z,100.00
2022-12-08T08:40:31.858Z,100.00
2022-12-08T08:43:04.107Z,100.00
2022-12-08T08:45:40.270Z,100.00
2022-12-08T08:48:20.834Z,100.00
2022-12-08T08:50:51.161Z,100.00
2022-12-08T08:53:30.204Z,100.00
2022-12-08T08:56:02.523Z,100.00
2022-12-08T08:58:41.334Z,100.00
2022-12-08T09:01:18.990Z,100.00
2022-12-08T09:03:57.309Z,100.00
2022-12-08T09:06:28.343Z,100.00
2022-12-08T09:08:58.471Z,100.00
2022-12-08T09:11:25.362Z,100.00
2022-12-08T09:13:53.801Z,100.00
2022-12-08T09:16:21.177Z,100.00
2022-12-08T09:18:51.470Z,100.00
2022-12-08T09:21:22.915Z,100.00
2022-12-08T09:23:51.316Z,100.00
2022-12-08T09:26:18.627Z,100.00
2022-12-08T09:28:46.911Z,100.00
2022-12-08T09:31:14.698Z,100.00
2022-12-08T09:33:42.180Z,100.00
2022-12-08T09:36:10.702Z,100.00
2022-12-08T09:38:38.313Z,100.00
2022-12-08T09:41:36.856Z,100.00
2022-12-08T09:44:20.387Z,100.00
2022-12-08T09:46:51.702Z,100.00
2022-12-08T09:49:24.010Z,100.00
2022-12-08T09:51:57.688Z,100.00
2022-12-08T09:54:35.998Z,100.00
2022-12-08T09:57:11.220Z,100.00
2022-12-08T09:59:38.133Z,100.00
2022-12-08T10:02:20.183Z,100.00
2022-12-08T10:04:47.353Z,100.00
2022-12-08T10:07:21.271Z,100.00
2022-12-08T10:10:29.361Z,100.00
2022-12-08T10:13:22.319Z,100.00
2022-12-08T10:16:19.047Z,100.00
2022-12-08T10:18:57.953Z,100.00
2022-12-08T10:21:28.936Z,100.00
2022-12-08T10:24:02.876Z,100.00
2022-12-08T10:26:32.784Z,100.00
2022-12-08T10:29:02.959Z,100.00
2022-12-08T10:31:30.910Z,100.00
2022-12-08T10:34:00.578Z,100.00
2022-12-08T10:36:56.238Z,100.00
2022-12-08T10:39:34.283Z,100.00
2022-12-08T10:42:21.543Z,100.00
2022-12-08T10:44:54.263Z,100.00
2022-12-08T10:47:22.486Z,100.00
2022-12-08T10:50:26.354Z,100.00
2022-12-08T10:52:59.495Z,100.00
2022-12-08T10:55:26.632Z,100.00
2022-12-08T10:57:53.642Z,100.00
2022-12-08T11:00:23.679Z,100.00
2022-12-08T11:03:22.578Z,100.00
2022-12-08T11:05:49.764Z,100.00
2022-12-08T11:08:17.182Z,100.00
2022-12-08T11:10:45.370Z,100.00
2022-12-08T11:13:42.247Z,100.00
2022-12-08T11:16:11.885Z,100.00
2022-12-08T11:18:48.285Z,100.00
2022-12-08T11:21:19.957Z,100.00
2022-12-08T11:23:49.933Z,100.00
2022-12-08T11:26:32.092Z,100.00
2022-12-08T11:28:58.972Z,100.00
2022-12-08T11:31:44.843Z,100.00
2022-12-08T11:34:20.880Z,100.00
2022-12-08T11:36:48.972Z,100.00
2022-12-08T11:39:15.942Z,100.00
2022-12-08T11:41:45.981Z,100.00
2022-12-08T11:44:24.808Z,100.00
2022-12-08T11:47:18.270Z,100.00
2022-12-08T11:52:30.892Z,100.00
2022-12-08T11:55:15.641Z,100.00
2022-12-08T11:57:42.295Z,100.00
2022-12-08T12:00:16.711Z,100.00
2022-12-08T12:02:48.925Z,100.00
2022-12-08T12:06:05.472Z,100.00
2022-12-08T12:08:24.537Z,100.00
2022-12-08T12:11:39.959Z,100.00
2022-12-08T12:14:34.752Z,100.00
2022-12-08T12:17:07.318Z,100.00
2022-12-08T12:19:39.627Z,100.00
2022-12-08T12:22:19.433Z,100.00
2022-12-08T12:24:49.983Z,100.00
2022-12-08T12:27:16.669Z,100.00
2022-12-08T12:29:59.232Z,100.00
2022-12-08T12:32:39.741Z,100.00
2022-12-08T12:35:17.975Z,100.00
2022-12-08T12:37:44.890Z,98.68
2022-12-08T12:40:11.891Z,99.22
2022-12-08T12:42:45.683Z,98.93
2022-12-08T12:45:18.380Z,97.75
2022-12-08T12:47:55.935Z,98.98
2022-12-08T12:50:32.390Z,98.56
2022-12-08T12:53:17.393Z,98.69
2022-12-08T12:55:58.948Z,99.43
2022-12-08T12:58:28.593Z,99.30
2022-12-08T13:01:10.447Z,100.00
2022-12-08T13:03:40.443Z,99.96
2022-12-08T13:06:14.734Z,100.00
2022-12-08T13:08:51.330Z,99.76
2022-12-08T13:11:18.148Z,99.74
2022-12-08T13:14:03.666Z,100.00
2022-12-08T13:16:37.990Z,99.79
2022-12-08T13:19:12.004Z,100.00
2022-12-08T13:21:39.795Z,100.00
2022-12-08T13:24:20.645Z,99.71
2022-12-08T13:27:05.766Z,100.00
2022-12-08T13:29:33.957Z,100.00
2022-12-08T13:32:07.257Z,100.00
2022-12-08T13:34:45.865Z,100.00
2022-12-08T13:37:12.506Z,100.00
2022-12-08T13:39:39.062Z,99.79
2022-12-08T13:42:25.355Z,100.00
2022-12-08T13:45:39.677Z,100.00
2022-12-08T13:50:31.304Z,100.00
2022-12-08T13:57:29.398Z,100.00
2022-12-08T14:00:05.088Z,100.00
2022-12-08T14:02:40.783Z,99.33
2022-12-08T14:05:26.316Z,99.08
2022-12-08T14:07:59.137Z,99.66
2022-12-08T14:10:32.079Z,98.74
2022-12-08T14:13:05.687Z,97.84
2022-12-08T14:15:37.901Z,98.17
2022-12-08T14:18:05.810Z,98.06
2022-12-08T14:20:51.964Z,98.60
2022-12-08T14:23:21.685Z,97.77
2022-12-08T14:25:48.646Z,98.19
2022-12-08T14:28:15.342Z,99.09
2022-12-08T14:30:42.428Z,99.31
2022-12-08T14:33:15.077Z,98.60
2022-12-08T14:35:42.084Z,98.26
2022-12-08T14:38:16.299Z,98.08
2022-12-08T14:40:48.781Z,97.29
2022-12-08T14:43:20.474Z,97.18
2022-12-08T14:45:47.968Z,97.75
2022-12-08T14:48:36.486Z,97.49
2022-12-08T14:51:20.509Z,96.58
2022-12-08T14:54:00.083Z,97.18
2022-12-08T14:56:33.443Z,97.59
2022-12-08T14:59:15.962Z,96.94
2022-12-08T15:01:43.943Z,97.96
2022-12-08T15:04:16.877Z,98.13
2022-12-08T15:07:07.544Z,98.83
2022-12-08T15:09:39.861Z,98.81
2022-12-08T15:12:12.546Z,98.68
2022-12-08T15:15:09.637Z,97.99
2022-12-08T15:17:50.195Z,98.75
2022-12-08T15:20:34.862Z,99.09
2022-12-08T15:23:02.574Z,99.24
2022-12-08T15:25:29.320Z,99.07
2022-12-08T15:27:58.742Z,99.67
2022-12-08T15:30:26.580Z,99.63
2022-12-08T15:32:54.505Z,100.00
2022-12-08T15:35:21.470Z,100.00
2022-12-08T15:37:48.219Z,100.00
2022-12-08T15:40:20.870Z,100.00
2022-12-08T15:42:48.210Z,100.00
2022-12-08T15:45:16.469Z,100.00
2022-12-08T15:47:44.354Z,100.00
2022-12-08T15:50:16.948Z,100.00
2022-12-08T15:52:43.956Z,100.00
2022-12-08T15:55:15.810Z,100.00
2022-12-08T16:00:53.498Z,100.00
2022-12-08T16:09:14.178Z,100.00
2022-12-08T16:12:09.526Z,100.00
2022-12-08T16:17:25.322Z,100.00
2022-12-08T16:19:52.143Z,100.00
2022-12-08T16:25:18.741Z,100.00
2022-12-08T16:30:34.535Z,100.00
2022-12-08T16:33:01.262Z,100.00
2022-12-08T16:35:28.125Z,100.00
2022-12-08T16:37:54.692Z,100.00
2022-12-08T16:40:21.654Z,100.00
2022-12-08T16:42:50.322Z,100.00
2022-12-08T16:45:20.060Z,100.00
2022-12-08T16:47:49.580Z,100.00
2022-12-08T16:50:28.968Z,100.00
2022-12-08T16:52:58.621Z,100.00
2022-12-08T16:55:25.671Z,100.00
2022-12-08T16:57:52.647Z,100.00
2022-12-08T17:00:24.793Z,100.00
2022-12-08T17:02:52.015Z,100.00
2022-12-08T17:05:21.382Z,100.00
2022-12-08T17:07:50.362Z,100.00
2022-12-08T17:10:20.231Z,100.00
2022-12-08T17:12:47.266Z,100.00
2022-12-08T17:15:17.011Z,100.00
2022-12-08T17:17:43.712Z,100.00
2022-12-08T17:20:16.512Z,100.00
2022-12-08T17:22:44.663Z,100.00
2022-12-08T17:25:11.672Z,100.00
2022-12-08T17:27:39.713Z,100.00
2022-12-08T17:30:08.662Z,100.00
2022-12-08T17:32:35.662Z,100.00
2022-12-08T17:35:02.838Z,100.00
2022-12-08T17:37:29.871Z,100.00
2022-12-08T17:39:56.501Z,100.00
2022-12-08T17:42:26.159Z,100.00
2022-12-08T17:44:53.638Z,100.00
2022-12-08T17:47:20.625Z,100.00
2022-12-08T17:49:47.211Z,100.00
2022-12-08T17:52:13.921Z,100.00
2022-12-08T17:54:40.658Z,100.00
2022-12-08T17:57:07.333Z,100.00
2022-12-08T17:59:34.020Z,100.00
2022-12-08T18:02:01.638Z,100.00
2022-12-08T18:04:29.050Z,100.00
2022-12-08T18:06:58.311Z,100.00
2022-12-08T18:09:25.037Z,100.00
2022-12-08T18:11:51.779Z,100.00
2022-12-08T18:14:18.455Z,100.00
2022-12-08T18:16:46.950Z,100.00
2022-12-08T18:19:15.183Z,100.00
2022-12-08T18:21:42.876Z,100.00
2022-12-08T18:24:17.177Z,100.00
2022-12-08T18:26:43.855Z,100.00
2022-12-08T18:29:10.536Z,100.00
2022-12-08T18:31:37.252Z,100.00
2022-12-08T18:34:03.952Z,100.00
2022-12-08T18:36:30.660Z,100.00
2022-12-08T18:38:57.313Z,100.00
2022-12-08T18:41:26.191Z,100.00
2022-12-08T18:43:54.589Z,100.00
2022-12-08T18:46:21.897Z,100.00
2022-12-08T18:48:50.408Z,100.00
2022-12-08T18:51:19.639Z,100.00
2022-12-08T18:53:47.588Z,100.00
2022-12-08T18:56:31.906Z,100.00
2022-12-08T18:59:03.501Z,100.00
2022-12-08T19:01:32.314Z,100.00
2022-12-08T19:06:47.131Z,100.00
2022-12-08T19:09:14.243Z,100.00
2022-12-08T19:11:41.810Z,100.00
2022-12-08T19:14:09.452Z,100.00
2022-12-08T19:16:36.292Z,100.00
2022-12-08T19:19:03.999Z,100.00
2022-12-08T19:21:31.087Z,100.00
2022-12-08T19:23:58.738Z,100.00
2022-12-08T19:26:27.721Z,100.00
2022-12-08T19:28:54.561Z,100.00
2022-12-08T19:31:21.350Z,100.00
2022-12-08T19:33:48.178Z,100.00
2022-12-08T19:36:17.954Z,100.00
2022-12-08T19:39:03.323Z,100.00
2022-12-08T19:41:49.107Z,100.00
2022-12-08T19:44:32.931Z,100.00
2022-12-08T19:47:00.646Z,100.00
2022-12-08T19:49:27.535Z,100.00
2022-12-08T19:51:54.347Z,100.00
2022-12-08T19:54:20.982Z,100.00
2022-12-08T19:56:47.806Z,100.00
2022-12-08T19:59:15.844Z,100.00
2022-12-08T20:01:44.033Z,100.00
2022-12-08T20:04:14.381Z,100.00
2022-12-08T20:06:40.951Z,100.00
2022-12-08T20:09:08.283Z,100.00
2022-12-08T20:11:34.910Z,100.00
2022-12-08T20:14:01.577Z,100.00
2022-12-08T20:16:28.210Z,100.00
2022-12-08T20:18:54.922Z,100.00
2022-12-08T20:21:21.632Z,100.00
2022-12-08T20:23:49.932Z,100.00
2022-12-08T20:26:18.883Z,100.00
2022-12-08T20:28:45.711Z,100.00
2022-12-08T20:31:23.683Z,100.00
2022-12-08T20:33:50.794Z,100.00
2022-12-08T20:36:19.217Z,100.00
2022-12-08T20:38:47.290Z,100.00
2022-12-08T20:41:16.154Z,100.00
2022-12-08T20:43:47.513Z,100.00
2022-12-08T20:46:16.333Z,100.00
2022-12-08T20:48:44.222Z,100.00
2022-12-08T20:51:15.864Z,100.00
2022-12-08T20:53:43.702Z,100.00
2022-12-08T20:56:17.961Z,100.00
2022-12-08T20:58:45.430Z,100.00
2022-12-08T21:01:14.090Z,100.00
2022-12-08T21:03:41.447Z,100.00
2022-12-08T21:06:08.921Z,100.00
2022-12-08T21:08:36.547Z,100.00
2022-12-08T21:11:04.399Z,100.00
2022-12-08T21:13:31.486Z,100.00
2022-12-08T21:15:58.566Z,100.00
2022-12-08T21:18:26.086Z,100.00
2022-12-08T21:20:53.270Z,100.00
2022-12-08T21:23:20.122Z,100.00
2022-12-08T21:25:47.380Z,100.00
2022-12-08T21:28:14.177Z,100.00
2022-12-08T21:30:42.143Z,100.00
2022-12-08T21:33:08.839Z,100.00
2022-12-08T21:35:35.718Z,100.00
2022-12-08T21:38:03.782Z,100.00
2022-12-08T21:40:30.552Z,100.00
2022-12-08T21:42:57.304Z,100.00
2022-12-08T21:45:23.911Z,100.00
2022-12-08T21:47:50.744Z,100.00
2022-12-08T21:50:18.540Z,100.00
2022-12-08T21:52:47.254Z,100.00
2022-12-08T21:55:16.124Z,100.00
2022-12-08T21:57:43.173Z,100.00
2022-12-08T22:00:13.664Z,100.00
2022-12-08T22:02:40.541Z,100.00
2022-12-08T22:05:07.834Z,100.00
2022-12-08T22:07:38.389Z,100.00
2022-12-08T22:10:07.763Z,100.00
2022-12-08T22:12:35.916Z,100.00
2022-12-08T22:15:05.794Z,100.00
2022-12-08T22:17:36.970Z,100.00
2022-12-08T22:20:07.656Z,100.00
2022-12-08T22:22:35.486Z,100.00
2022-12-08T22:25:04.743Z,100.00
2022-12-08T22:27:33.810Z,100.00
2022-12-08T22:30:00.695Z,100.00
2022-12-08T22:32:27.517Z,100.00
2022-12-08T22:34:54.444Z,100.00
2022-12-08T22:37:21.709Z,100.00
2022-12-08T22:39:48.466Z,100.00
2022-12-08T22:42:15.553Z,100.00
2022-12-08T22:44:42.300Z,100.00
2022-12-08T22:47:09.117Z,100.00
2022-12-08T22:49:36.975Z,100.00
2022-12-08T22:52:04.037Z,100.00
2022-12-08T22:54:31.039Z,100.00
2022-12-08T22:56:57.656Z,100.00
2022-12-08T22:59:24.953Z,100.00
2022-12-08T23:01:51.565Z,100.00
2022-12-08T23:04:18.677Z,100.00
2022-12-08T23:06:45.634Z,100.00
2022-12-08T23:09:12.323Z,100.00
2022-12-08T23:11:39.452Z,100.00
2022-12-08T23:14:06.128Z,100.00
2022-12-08T23:16:33.654Z,100.00
2022-12-08T23:19:00.471Z,100.00
2022-12-08T23:21:27.224Z,100.00
2022-12-08T23:23:54.011Z,100.00
2022-12-08T23:26:24.299Z,100.00
2022-12-08T23:28:51.349Z,100.00
2022-12-08T23:31:18.881Z,100.00
2022-12-08T23:33:45.819Z,100.00
2022-12-08T23:36:13.925Z,100.00
2022-12-08T23:38:40.661Z,100.00
2022-12-08T23:41:09.141Z,100.00
2022-12-08T23:43:36.108Z,100.00
2022-12-08T23:46:03.715Z,100.00
2022-12-08T23:48:34.659Z,100.00
2022-12-08T23:51:01.982Z,100.00
2022-12-08T23:53:33.167Z,100.00
2022-12-08T23:56:01.875Z,100.00
2022-12-08T23:58:30.381Z,100.00
